Time;durP1;ratioP1;P1;durP2;ratioP2;P2;SDS_P1;SDS_P2;PMS_P1;PMS_P2;Temp;Humidity;BMP_temperature;BMP_pressure;BME280_temperature;BME280_humidity;BME280_pressure;Samples;Min_cycle;Max_cycle;Signal;HPM_P1;HPM_P2
2023/09/07 00:01:48;;;;;;;0.30;0.30;;;19.70;99.90;;;;;;5114313;28;20456;-80
2023/09/07 00:04:14;;;;;;;0.53;0.50;;;19.70;99.90;;;;;;5112754;28;20468;-81
2023/09/07 00:06:43;;;;;;;0.30;0.30;;;19.70;99.90;;;;;;5113911;28;20043;-80
2023/09/07 00:09:11;;;;;;;0.55;0.55;;;19.70;99.90;;;;;;5113860;28;20411;-81
2023/09/07 00:11:37;;;;;;;0.45;0.45;;;19.60;99.90;;;;;;5113419;28;20122;-81
2023/09/07 00:14:02;;;;;;;0.30;0.30;;;19.60;99.90;;;;;;5113228;28;20118;-80
2023/09/07 00:16:28;;;;;;;0.20;0.20;;;19.60;99.90;;;;;;5113451;28;20066;-81
2023/09/07 00:18:54;;;;;;;0.30;0.30;;;19.60;99.90;;;;;;5116942;28;20048;-81
2023/09/07 00:21:19;;;;;;;0.30;0.30;;;19.60;99.90;;;;;;5117400;28;20042;-80
2023/09/07 00:23:45;;;;;;;0.20;0.20;;;19.50;99.90;;;;;;5115973;28;20079;-81
2023/09/07 00:26:12;;;;;;;0.40;0.40;;;19.50;99.90;;;;;;5117213;28;20075;-81
2023/09/07 00:28:38;;;;;;;0.30;0.30;;;19.50;99.90;;;;;;5117465;28;20038;-80
2023/09/07 00:31:04;;;;;;;0.30;0.30;;;19.50;99.90;;;;;;5117205;28;20077;-80
2023/09/07 00:33:30;;;;;;;0.37;0.37;;;19.40;99.90;;;;;;5115914;28;20043;-79
2023/09/07 00:35:55;;;;;;;0.33;0.30;;;19.40;99.90;;;;;;5117029;28;20122;-81
2023/09/07 00:38:21;;;;;;;0.50;0.50;;;19.40;99.90;;;;;;5116920;28;20126;-79
2023/09/07 00:40:46;;;;;;;0.30;0.30;;;19.30;99.90;;;;;;5117250;28;20126;-80
2023/09/07 00:43:12;;;;;;;0.30;0.30;;;19.30;99.90;;;;;;5116879;28;20047;-81
2023/09/07 00:45:39;;;;;;;0.43;0.43;;;19.20;99.90;;;;;;5116752;28;20038;-80
2023/09/07 00:48:05;;;;;;;0.30;0.30;;;19.30;99.90;;;;;;5116716;28;20074;-81
2023/09/07 00:50:31;;;;;;;1.55;0.50;;;19.20;99.90;;;;;;5116859;28;20425;-80
2023/09/07 00:52:59;;;;;;;0.30;0.30;;;19.20;99.90;;;;;;5116726;28;20039;-81
2023/09/07 00:55:26;;;;;;;0.30;0.30;;;19.10;99.90;;;;;;5116607;28;20046;-81
2023/09/07 00:57:51;;;;;;;0.30;0.30;;;19.10;99.90;;;;;;5116589;28;20040;-80
2023/09/07 01:00:17;;;;;;;0.40;0.40;;;19.10;99.90;;;;;;5116651;28;20039;-81
2023/09/07 01:02:44;;;;;;;0.30;0.30;;;19.00;99.90;;;;;;5116536;28;20039;-80
2023/09/07 01:05:11;;;;;;;0.70;0.63;;;19.00;99.90;;;;;;5116493;28;20136;-81
2023/09/07 01:07:59;;;;;;;0.40;0.40;;;19.00;99.90;;;;;;5115020;28;20035;-81
2023/09/07 01:10:25;;;;;;;0.30;0.30;;;19.00;99.90;;;;;;5116195;28;20087;-80
2023/09/07 01:12:51;;;;;;;0.40;0.40;;;19.00;99.90;;;;;;5116631;28;20144;-81
2023/09/07 01:15:17;;;;;;;0.30;0.30;;;18.90;99.90;;;;;;5116209;28;20047;-80
2023/09/07 01:17:43;;;;;;;0.30;0.30;;;18.90;99.90;;;;;;5114969;28;20043;-80
2023/09/07 01:20:12;;;;;;;0.30;0.30;;;18.90;99.90;;;;;;5116121;28;20092;-81
2023/09/07 01:22:39;;;;;;;0.30;0.30;;;18.90;99.90;;;;;;5098459;28;20075;-81
2023/09/07 01:25:06;;;;;;;0.30;0.30;;;18.80;99.90;;;;;;5116436;28;20040;-80
2023/09/07 01:27:33;;;;;;;0.32;0.32;;;18.80;99.90;;;;;;5115953;28;20066;-80
2023/09/07 01:29:58;;;;;;;0.30;0.30;;;18.80;99.90;;;;;;5115650;28;20043;-80
2023/09/07 01:32:26;;;;;;;0.30;0.30;;;18.80;99.90;;;;;;5116014;28;20456;-80
2023/09/07 01:34:57;;;;;;;0.30;0.30;;;18.80;99.90;;;;;;5115734;28;20407;-80
2023/09/07 01:37:23;;;;;;;0.50;0.50;;;18.80;99.90;;;;;;5115875;28;20046;-80
2023/09/07 01:39:49;;;;;;;0.73;0.40;;;18.70;99.90;;;;;;5115780;28;20036;-79
2023/09/07 01:42:15;;;;;;;0.30;0.30;;;18.70;99.90;;;;;;5115779;28;20040;-80
2023/09/07 01:44:41;;;;;;;0.30;0.30;;;18.70;99.90;;;;;;5115972;28;20035;-80
2023/09/07 01:47:07;;;;;;;0.37;0.37;;;18.60;99.90;;;;;;5115313;28;20489;-79
2023/09/07 01:49:32;;;;;;;0.20;0.20;;;18.60;99.90;;;;;;5114074;28;20118;-80
2023/09/07 01:51:58;;;;;;;0.30;0.30;;;18.60;99.90;;;;;;5115508;28;20367;-81
2023/09/07 01:54:24;;;;;;;0.83;0.47;;;18.50;99.90;;;;;;5115492;28;20059;-80
2023/09/07 01:56:49;;;;;;;0.43;0.43;;;18.50;99.90;;;;;;5115460;28;20039;-80
2023/09/07 01:59:15;;;;;;;0.30;0.30;;;18.40;99.90;;;;;;5115389;28;20035;-81
2023/09/07 02:01:40;;;;;;;0.77;0.40;;;18.40;99.90;;;;;;5115368;28;20043;-80
2023/09/07 02:04:06;;;;;;;0.30;0.30;;;18.40;99.90;;;;;;5115210;28;20047;-80
2023/09/07 02:06:32;;;;;;;0.33;0.33;;;18.40;99.90;;;;;;5115220;28;20043;-80
2023/09/07 02:08:57;;;;;;;0.30;0.30;;;18.40;99.90;;;;;;5113541;28;20528;-80
2023/09/07 02:11:23;;;;;;;0.33;0.33;;;18.40;99.90;;;;;;5115260;28;20490;-79
2023/09/07 02:13:49;;;;;;;0.73;0.50;;;18.40;99.90;;;;;;5115195;28;20451;-80
2023/09/07 02:16:15;;;;;;;0.33;0.33;;;18.40;99.90;;;;;;5113928;28;20130;-80
2023/09/07 02:18:46;;;;;;;0.30;0.30;;;18.40;99.90;;;;;;5114968;28;20122;-80
2023/09/07 02:21:13;;;;;;;2.38;0.50;;;18.30;99.90;;;;;;5114153;28;20082;-81
2023/09/07 02:23:38;;;;;;;0.90;0.68;;;18.30;99.90;;;;;;5114876;28;20047;-80
2023/09/07 02:26:04;;;;;;;0.30;0.30;;;18.30;99.90;;;;;;5114888;28;20039;-80
2023/09/07 02:28:30;;;;;;;0.30;0.30;;;18.30;99.90;;;;;;5114786;28;20027;-80
2023/09/07 02:31:03;;;;;;;0.30;0.30;;;18.30;99.90;;;;;;5114749;28;20356;-79
2023/09/07 02:33:29;;;;;;;0.30;0.30;;;18.20;99.90;;;;;;5115462;28;20131;-80
2023/09/07 02:35:55;;;;;;;0.37;0.37;;;18.20;99.90;;;;;;5115402;28;20039;-80
2023/09/07 02:38:21;;;;;;;0.32;0.30;;;18.20;99.90;;;;;;5114742;28;20055;-80
2023/09/07 02:40:46;;;;;;;0.30;0.30;;;18.20;99.90;;;;;;5114262;28;20368;-81
2023/09/07 02:43:12;;;;;;;0.30;0.30;;;18.10;99.90;;;;;;5114673;28;20046;-80
2023/09/07 02:45:38;;;;;;;0.30;0.30;;;18.10;99.90;;;;;;5113612;28;20047;-81
2023/09/07 02:48:05;;;;;;;0.30;0.30;;;18.10;99.90;;;;;;5114371;28;20433;-80
2023/09/07 02:50:33;;;;;;;0.30;0.30;;;18.10;99.90;;;;;;5115028;28;20047;-80
2023/09/07 02:53:00;;;;;;;0.65;0.40;;;18.10;99.90;;;;;;5114726;28;20039;-80
2023/09/07 02:55:29;;;;;;;0.30;0.30;;;18.00;99.90;;;;;;5114697;28;20352;-80
2023/09/07 02:57:56;;;;;;;0.43;0.43;;;18.00;99.90;;;;;;5115048;28;20502;-81
2023/09/07 03:00:22;;;;;;;0.30;0.30;;;17.90;99.90;;;;;;5114954;28;20039;-80
2023/09/07 03:02:48;;;;;;;0.30;0.30;;;18.00;99.90;;;;;;5115264;28;20040;-81
2023/09/07 03:05:17;;;;;;;0.70;0.63;;;17.90;99.90;;;;;;5114941;28;20036;-81
2023/09/07 03:07:45;;;;;;;0.30;0.30;;;17.90;99.90;;;;;;5114020;28;20164;-80
2023/09/07 03:10:11;;;;;;;0.30;0.30;;;17.90;99.90;;;;;;5114298;28;20092;-80
2023/09/07 03:12:37;;;;;;;0.70;0.60;;;17.80;99.90;;;;;;5114194;28;20122;-80
2023/09/07 03:15:04;;;;;;;1.10;0.60;;;17.80;99.90;;;;;;5113272;28;20047;-81
2023/09/07 03:17:30;;;;;;;0.40;0.40;;;17.80;99.90;;;;;;5113783;28;20065;-81
2023/09/07 03:19:56;;;;;;;0.30;0.30;;;17.80;99.90;;;;;;5114150;28;20476;-80
2023/09/07 03:22:23;;;;;;;0.30;0.30;;;17.80;99.90;;;;;;5114144;28;20096;-80
2023/09/07 03:24:51;;;;;;;1.13;0.60;;;17.80;99.90;;;;;;5114004;28;20532;-79
2023/09/07 03:27:17;;;;;;;0.35;0.30;;;17.70;99.90;;;;;;5114194;28;20126;-81
2023/09/07 03:29:44;;;;;;;0.30;0.30;;;17.70;99.90;;;;;;5114012;28;20128;-81
2023/09/07 03:32:09;;;;;;;0.30;0.30;;;17.60;99.90;;;;;;5114156;28;20036;-81
2023/09/07 03:34:35;;;;;;;0.33;0.33;;;17.60;99.90;;;;;;5114046;28;20116;-81
2023/09/07 03:37:00;;;;;;;0.37;0.37;;;17.60;99.90;;;;;;5114043;28;20031;-80
2023/09/07 03:39:26;;;;;;;0.30;0.30;;;17.60;99.90;;;;;;5114013;28;20040;-80
2023/09/07 03:41:52;;;;;;;0.40;0.40;;;17.60;99.90;;;;;;5113972;28;20103;-81
2023/09/07 03:44:18;;;;;;;0.47;0.40;;;17.50;99.90;;;;;;5113929;28;20036;-81
2023/09/07 03:46:44;;;;;;;0.57;0.57;;;17.50;99.90;;;;;;5112764;28;20107;-80
2023/09/07 03:49:10;;;;;;;0.30;0.30;;;17.50;99.90;;;;;;5112691;28;20483;-79
2023/09/07 03:51:36;;;;;;;0.30;0.30;;;17.50;99.90;;;;;;5113982;28;20055;-81
2023/09/07 03:54:01;;;;;;;0.32;0.32;;;17.50;99.90;;;;;;5117278;28;20089;-80
2023/09/07 03:56:27;;;;;;;0.30;0.30;;;17.40;99.90;;;;;;5116755;28;20088;-81
2023/09/07 03:58:53;;;;;;;0.40;0.40;;;17.40;99.90;;;;;;5117447;28;20047;-81
2023/09/07 04:01:18;;;;;;;0.90;0.77;;;17.40;99.90;;;;;;5117753;28;20119;-80
2023/09/07 04:03:44;;;;;;;0.73;0.73;;;17.40;99.90;;;;;;5118061;28;20124;-83
2023/09/07 04:06:09;;;;;;;0.53;0.40;;;17.30;99.90;;;;;;5117693;28;20221;-80
2023/09/07 04:08:35;;;;;;;0.30;0.30;;;17.30;99.90;;;;;;5117114;28;20047;-79
2023/09/07 04:11:05;;;;;;;0.40;0.40;;;17.30;99.90;;;;;;5117501;28;20463;-80
2023/09/07 04:13:31;;;;;;;0.30;0.30;;;17.30;99.90;;;;;;5117465;28;20048;-80
2023/09/07 04:15:57;;;;;;;0.40;0.40;;;17.30;99.90;;;;;;5117527;28;20078;-80
2023/09/07 04:18:22;;;;;;;0.30;0.30;;;17.20;99.90;;;;;;5117433;28;20031;-81
2023/09/07 04:20:48;;;;;;;0.47;0.47;;;17.30;99.90;;;;;;5117612;28;20040;-81
2023/09/07 04:23:13;;;;;;;0.30;0.30;;;17.20;99.90;;;;;;5117632;28;20043;-80
2023/09/07 04:25:39;;;;;;;0.87;0.53;;;17.20;99.90;;;;;;5117460;28;20067;-80
2023/09/07 04:28:06;;;;;;;0.50;0.50;;;17.10;99.90;;;;;;5117241;28;20032;-80
2023/09/07 04:30:38;;;;;;;0.50;0.50;;;17.10;99.90;;;;;;5117497;28;20044;-79
2023/09/07 04:33:04;;;;;;;0.55;0.55;;;17.10;99.90;;;;;;5116007;28;20118;-80
2023/09/07 04:35:30;;;;;;;0.50;0.40;;;17.10;99.90;;;;;;5117115;28;20506;-81
2023/09/07 04:37:56;;;;;;;0.40;0.40;;;17.10;99.90;;;;;;5117151;28;20051;-80
2023/09/07 04:40:23;;;;;;;0.40;0.40;;;17.10;99.90;;;;;;5116983;28;20040;-81
2023/09/07 04:42:49;;;;;;;1.17;0.55;;;17.10;99.90;;;;;;5116767;28;20123;-80
2023/09/07 04:45:15;;;;;;;0.30;0.30;;;17.10;99.90;;;;;;5116992;28;20124;-81
2023/09/07 04:47:40;;;;;;;0.30;0.30;;;17.00;99.90;;;;;;5116777;28;20039;-79
2023/09/07 04:50:06;;;;;;;0.47;0.47;;;17.00;99.90;;;;;;5115696;28;20049;-81
2023/09/07 04:52:32;;;;;;;0.50;0.50;;;17.00;99.90;;;;;;5116705;28;20053;-80
2023/09/07 04:54:58;;;;;;;0.40;0.40;;;17.00;99.90;;;;;;5116501;27;20039;-79
2023/09/07 04:57:24;;;;;;;0.47;0.47;;;16.90;99.90;;;;;;5116603;28;20329;-80
2023/09/07 04:59:49;;;;;;;0.40;0.40;;;16.90;99.90;;;;;;5116607;28;20113;-81
2023/09/07 05:02:15;;;;;;;0.40;0.40;;;16.90;99.90;;;;;;5116944;28;20035;-80
2023/09/07 05:04:40;;;;;;;0.53;0.53;;;16.90;99.90;;;;;;5116226;28;20092;-80
2023/09/07 05:07:06;;;;;;;0.53;0.50;;;16.90;99.90;;;;;;5116348;28;20050;-79
2023/09/07 05:09:33;;;;;;;0.40;0.40;;;16.90;99.90;;;;;;5116317;28;20051;-80
2023/09/07 05:11:58;;;;;;;1.42;0.63;;;17.10;99.90;;;;;;5116360;28;20051;-79
2023/09/07 05:14:25;;;;;;;0.30;0.30;;;16.90;99.90;;;;;;5116308;28;20043;-80
2023/09/07 05:16:50;;;;;;;0.40;0.40;;;16.90;99.90;;;;;;5116411;28;20468;-79
2023/09/07 05:19:16;;;;;;;0.97;0.57;;;16.90;99.90;;;;;;5116650;28;20082;-80
2023/09/07 05:21:42;;;;;;;0.50;0.50;;;16.90;99.90;;;;;;5116141;28;20043;-80
2023/09/07 05:24:08;;;;;;;0.50;0.50;;;16.90;99.90;;;;;;5116110;28;20031;-80
2023/09/07 05:26:33;;;;;;;0.40;0.40;;;16.90;99.90;;;;;;5116177;28;20370;-81
2023/09/07 05:28:59;;;;;;;1.37;0.60;;;16.90;99.90;;;;;;5115938;28;20123;-81
2023/09/07 05:31:24;;;;;;;0.50;0.50;;;16.90;99.90;;;;;;5114773;28;20096;-80
2023/09/07 05:33:51;;;;;;;0.60;0.50;;;17.00;99.90;;;;;;5116008;28;20035;-80
2023/09/07 05:36:17;;;;;;;;;;;17.00;99.90;;;;;;5116260;28;20044;-80
2023/09/07 05:38:42;;;;;;;0.63;0.63;;;17.00;99.90;;;;;;5115802;28;19916;-81
2023/09/07 05:41:08;;;;;;;0.40;0.40;;;17.00;99.90;;;;;;5115590;28;20501;-80
2023/09/07 05:43:34;;;;;;;0.83;0.67;;;17.00;99.90;;;;;;5115627;28;20032;-81
2023/09/07 05:45:59;;;;;;;0.60;0.60;;;17.00;99.90;;;;;;5115814;28;20039;-80
2023/09/07 05:48:25;;;;;;;0.73;0.40;;;17.00;99.90;;;;;;5115629;28;20463;-81
2023/09/07 05:50:51;;;;;;;0.40;0.40;;;17.10;99.90;;;;;;5115591;28;20050;-81
2023/09/07 05:53:19;;;;;;;0.57;0.50;;;17.10;99.90;;;;;;5115768;28;20467;-81
2023/09/07 05:55:45;;;;;;;0.40;0.40;;;17.10;99.90;;;;;;5114361;28;20042;-81
2023/09/07 05:58:10;;;;;;;0.60;0.60;;;17.20;99.90;;;;;;5115457;28;20039;-80
2023/09/07 06:00:38;;;;;;;0.50;0.50;;;17.20;99.90;;;;;;5115420;28;20089;-81
2023/09/07 06:03:05;;;;;;;0.60;0.60;;;17.20;99.90;;;;;;5114344;28;20043;-80
2023/09/07 06:05:31;;;;;;;0.52;0.50;;;17.20;99.90;;;;;;5115473;28;20047;-80
2023/09/07 06:07:56;;;;;;;0.70;0.70;;;17.20;99.90;;;;;;5115572;28;20047;-80
2023/09/07 06:10:22;;;;;;;0.40;0.40;;;17.20;99.90;;;;;;5115731;28;20051;-80
2023/09/07 06:12:48;;;;;;;0.30;0.30;;;17.30;99.90;;;;;;5115209;28;20126;-81
2023/09/07 06:15:13;;;;;;;1.60;0.67;;;17.30;99.90;;;;;;5115445;28;20039;-80
2023/09/07 06:17:39;;;;;;;0.30;0.30;;;17.30;99.90;;;;;;5115389;28;20044;-80
2023/09/07 06:20:05;;;;;;;0.80;0.77;;;17.30;99.90;;;;;;5115037;28;20379;-80
2023/09/07 06:22:31;;;;;;;0.40;0.40;;;17.40;99.90;;;;;;5114913;28;20050;-80
2023/09/07 06:24:57;;;;;;;0.60;0.60;;;17.40;99.90;;;;;;5114945;28;20114;-81
2023/09/07 06:27:22;;;;;;;0.43;0.43;;;17.50;99.90;;;;;;5113602;28;20040;-81
2023/09/07 06:29:49;;;;;;;0.40;0.40;;;17.60;99.90;;;;;;5115009;28;20074;-81
2023/09/07 06:32:14;;;;;;;0.32;0.32;;;17.60;99.90;;;;;;5114921;28;20050;-81
2023/09/07 06:34:40;;;;;;;0.83;0.70;;;17.70;99.90;;;;;;5115202;28;20111;-81
2023/09/07 06:37:06;;;;;;;0.63;0.60;;;17.70;99.90;;;;;;5114768;28;20039;-82
2023/09/07 06:39:33;;;;;;;0.90;0.40;;;17.90;99.90;;;;;;5114632;28;20099;-79
2023/09/07 06:41:58;;;;;;;0.32;0.32;;;17.90;99.90;;;;;;5114692;28;20039;-79
2023/09/07 06:44:24;;;;;;;0.40;0.40;;;18.10;99.90;;;;;;5114644;28;20036;-80
2023/09/07 06:46:50;;;;;;;0.50;0.40;;;18.20;99.90;;;;;;5114621;28;20038;-81
2023/09/07 06:49:15;;;;;;;0.70;0.50;;;18.40;99.90;;;;;;5114498;28;20043;-80
2023/09/07 06:51:41;;;;;;;0.40;0.40;;;18.50;99.90;;;;;;5114299;28;20083;-80
2023/09/07 06:54:06;;;;;;;0.57;0.57;;;18.60;99.90;;;;;;5114334;28;20032;-80
2023/09/07 06:56:34;;;;;;;0.50;0.50;;;18.70;99.90;;;;;;5114517;28;20459;-80
2023/09/07 06:59:00;;;;;;;0.50;0.50;;;18.90;99.90;;;;;;5113123;28;20039;-80
2023/09/07 07:01:26;;;;;;;0.40;0.40;;;19.00;99.90;;;;;;5114821;28;20039;-80
2023/09/07 07:03:52;;;;;;;0.50;0.50;;;19.20;99.90;;;;;;5113033;28;20441;-81
2023/09/07 07:06:18;;;;;;;0.40;0.40;;;19.30;99.90;;;;;;5114302;28;20044;-81
2023/09/07 07:08:44;;;;;;;0.30;0.30;;;19.40;99.90;;;;;;5113051;28;20112;-80
2023/09/07 07:11:09;;;;;;;0.30;0.30;;;19.50;99.90;;;;;;5113390;28;20039;-81
2023/09/07 07:13:36;;;;;;;0.57;0.50;;;19.60;99.90;;;;;;5114333;28;20533;-80
2023/09/07 07:16:04;;;;;;;0.30;0.30;;;19.80;99.90;;;;;;5113862;28;20047;-80
2023/09/07 07:18:29;;;;;;;0.73;0.70;;;19.90;99.90;;;;;;5114541;28;20035;-81
2023/09/07 07:20:55;;;;;;;0.60;0.50;;;20.00;99.90;;;;;;5113841;28;20368;-80
2023/09/07 07:23:20;;;;;;;0.40;0.40;;;20.10;99.90;;;;;;5114295;28;20126;-81
2023/09/07 07:25:46;;;;;;;0.40;0.40;;;20.20;99.90;;;;;;5114258;28;20035;-82
2023/09/07 07:28:12;;;;;;;0.40;0.40;;;20.30;99.90;;;;;;5118061;28;20031;-81
2023/09/07 07:30:42;;;;;;;0.87;0.60;;;20.50;99.90;;;;;;5118979;28;20433;-81
2023/09/07 07:33:09;;;;;;;0.43;0.43;;;20.60;99.90;;;;;;5117050;28;20035;-80
2023/09/07 07:35:35;;;;;;;0.43;0.43;;;20.70;99.90;;;;;;5118217;28;20079;-80
2023/09/07 07:38:06;;;;;;;0.30;0.30;;;20.80;99.90;;;;;;5118262;28;20083;-80
2023/09/07 07:40:31;;;;;;;0.57;0.57;;;21.00;99.90;;;;;;5117818;28;20086;-80
2023/09/07 07:42:57;;;;;;;1.13;0.77;;;21.10;99.90;;;;;;5118089;28;20079;-81
2023/09/07 07:45:23;;;;;;;0.30;0.30;;;21.20;99.90;;;;;;5118032;28;20035;-80
2023/09/07 07:47:49;;;;;;;0.30;0.30;;;21.20;99.90;;;;;;5117696;28;20063;-80
2023/09/07 07:50:16;;;;;;;0.30;0.30;;;21.40;99.90;;;;;;5118200;28;20417;-80
2023/09/07 07:52:42;;;;;;;0.55;0.52;;;21.50;99.90;;;;;;5117896;28;20047;-81
2023/09/07 07:55:09;;;;;;;0.70;0.50;;;21.60;99.90;;;;;;5117912;28;20036;-81
2023/09/07 07:57:35;;;;;;;0.65;0.40;;;21.70;99.90;;;;;;5117466;28;20122;-81
2023/09/07 08:00:03;;;;;;;0.30;0.30;;;21.80;99.90;;;;;;5117502;28;20173;-81
2023/09/07 08:02:29;;;;;;;0.47;0.47;;;21.90;99.90;;;;;;5117645;28;20050;-81
2023/09/07 08:04:55;;;;;;;0.30;0.30;;;22.00;99.90;;;;;;5117638;28;20039;-81
2023/09/07 08:07:21;;;;;;;0.40;0.40;;;22.10;99.90;;;;;;5116366;28;20173;-81
2023/09/07 08:09:47;;;;;;;0.40;0.40;;;22.20;99.90;;;;;;5116125;28;20051;-80
2023/09/07 08:12:12;;;;;;;0.20;0.20;;;22.30;99.90;;;;;;5117528;28;20035;-81
2023/09/07 08:14:38;;;;;;;0.37;0.37;;;22.40;99.90;;;;;;5117468;28;20046;-81
2023/09/07 08:17:03;;;;;;;0.40;0.40;;;22.50;99.90;;;;;;5117514;28;20115;-80
2023/09/07 08:19:29;;;;;;;0.60;0.60;;;22.60;99.90;;;;;;5117355;28;20520;-81
2023/09/07 08:21:55;;;;;;;0.30;0.30;;;22.60;99.90;;;;;;5117317;28;20043;-81
2023/09/07 08:24:21;;;;;;;0.53;0.50;;;22.80;99.90;;;;;;5117235;28;20047;-80
2023/09/07 08:26:51;;;;;;;0.30;0.30;;;22.80;99.90;;;;;;5117118;28;20047;-81
2023/09/07 08:29:17;;;;;;;0.30;0.30;;;23.00;99.90;;;;;;5117201;28;20047;-80
2023/09/07 08:31:45;;;;;;;0.70;0.30;;;23.00;99.90;;;;;;5117582;28;20046;-81
2023/09/07 08:34:11;;;;;;;0.70;0.70;;;23.10;99.90;;;;;;5117202;28;20137;-81
2023/09/07 08:36:37;;;;;;;0.57;0.40;;;23.20;99.90;;;;;;5117029;28;20039;-80
2023/09/07 08:39:09;;;;;;;0.45;0.43;;;23.30;99.90;;;;;;5116166;28;20072;-81
2023/09/07 08:41:43;;;;;;;2.10;0.68;;;23.40;99.90;;;;;;5115854;28;20044;-81
2023/09/07 08:44:19;;;;;;;1.48;0.95;;;23.50;99.90;;;;;;5117205;28;20105;-81
2023/09/07 08:46:45;;;;;;;0.45;0.45;;;23.60;99.90;;;;;;5116924;28;20039;-81
2023/09/07 08:49:11;;;;;;;0.63;0.63;;;23.70;99.90;;;;;;5116719;28;20032;-81
2023/09/07 08:51:38;;;;;;;0.85;0.40;;;23.70;99.90;;;;;;5116752;28;20383;-81
2023/09/07 08:54:05;;;;;;;0.60;0.60;;;23.90;99.90;;;;;;5116669;28;20114;-81
2023/09/07 08:56:31;;;;;;;0.20;0.20;;;23.90;99.90;;;;;;5116605;28;20039;-81
2023/09/07 08:58:57;;;;;;;0.40;0.40;;;24.10;99.90;;;;;;5116616;28;20043;-80
2023/09/07 09:01:23;;;;;;;0.30;0.30;;;24.10;99.90;;;;;;5116995;28;20035;-82
2023/09/07 09:03:52;;;;;;;0.30;0.30;;;24.20;99.90;;;;;;5116291;28;20036;-81
2023/09/07 09:06:20;;;;;;;0.30;0.30;;;24.30;99.90;;;;;;5116442;28;20047;-81
2023/09/07 09:08:58;;;;;;;0.28;0.28;;;24.40;99.90;;;;;;5116260;28;20134;-81
2023/09/07 09:11:25;;;;;;;0.30;0.30;;;24.50;99.90;;;;;;5116586;28;20378;-81
2023/09/07 09:13:52;;;;;;;0.30;0.30;;;24.60;99.90;;;;;;5116402;28;20043;-81
2023/09/07 09:16:18;;;;;;;0.40;0.40;;;24.60;99.90;;;;;;5116273;28;20040;-81
2023/09/07 09:18:55;;;;;;;0.38;0.38;;;24.70;99.90;;;;;;5116235;28;20031;-81
2023/09/07 09:21:24;;;;;;;;;;;24.70;99.90;;;;;;5117194;28;20051;-81
2023/09/07 09:23:52;;;;;;;0.50;0.50;;;24.80;99.90;;;;;;5117044;28;19923;-81
2023/09/07 09:26:18;;;;;;;0.30;0.30;;;24.90;99.90;;;;;;5115652;28;20075;-81
2023/09/07 09:28:45;;;;;;;1.65;0.90;;;24.90;99.90;;;;;;5116680;28;20043;-81
2023/09/07 09:31:12;;;;;;;0.50;0.50;;;25.00;99.90;;;;;;5116306;28;20081;-81
2023/09/07 09:33:41;;;;;;;0.50;0.40;;;25.10;99.90;;;;;;5115718;28;20387;-81
2023/09/07 09:36:08;;;;;;;0.30;0.30;;;25.10;99.90;;;;;;5115800;28;20114;-81
2023/09/07 09:38:35;;;;;;;0.40;0.38;;;25.30;99.90;;;;;;5098441;28;20050;-81
2023/09/07 09:41:03;;;;;;;0.40;0.40;;;25.40;99.90;;;;;;5115795;28;20361;-81
2023/09/07 09:43:29;;;;;;;1.00;0.57;;;25.40;99.90;;;;;;5115788;28;20039;-81
2023/09/07 09:45:56;;;;;;;0.30;0.30;;;25.40;99.90;;;;;;5115665;28;20071;-81
2023/09/07 09:48:22;;;;;;;0.30;0.30;;;25.50;99.90;;;;;;5116009;28;20044;-82
2023/09/07 09:50:49;;;;;;;0.40;0.40;;;25.50;99.90;;;;;;5114595;28;20126;-81
2023/09/07 09:53:20;;;;;;;0.65;0.65;;;25.60;99.90;;;;;;5115014;28;20468;-82
2023/09/07 09:55:46;;;;;;;0.35;0.35;;;25.70;99.90;;;;;;5115408;28;20042;-82
2023/09/07 09:58:13;;;;;;;0.38;0.30;;;25.70;99.90;;;;;;5115362;28;20467;-81
2023/09/07 10:00:44;;;;;;;0.40;0.40;;;25.80;99.90;;;;;;5115057;28;20039;-81
2023/09/07 10:03:15;;;;;;;1.00;0.40;;;25.70;99.90;;;;;;5115651;28;20054;-82
2023/09/07 10:05:44;;;;;;;0.50;0.50;;;25.80;99.90;;;;;;5115231;28;20468;-81
2023/09/07 10:08:14;;;;;;;0.43;0.43;;;25.90;99.90;;;;;;5115062;28;20087;-81
2023/09/07 10:10:42;;;;;;;0.30;0.30;;;26.00;99.90;;;;;;5115506;28;20427;-81
2023/09/07 10:13:07;;;;;;;0.40;0.40;;;26.10;99.90;;;;;;5114064;28;20043;-82
2023/09/07 10:15:38;;;;;;;0.20;0.20;;;26.10;99.90;;;;;;5115159;28;20050;-81
2023/09/07 10:18:06;;;;;;;0.20;0.20;;;26.30;99.90;;;;;;5115371;28;20080;-81
2023/09/07 10:20:58;;;;;;;1.80;0.32;;;26.40;99.90;;;;;;5115029;28;20107;-81
2023/09/07 10:23:38;;;;;;;0.38;0.38;;;26.50;99.90;;;;;;5115095;28;20042;-82
2023/09/07 10:26:05;;;;;;;0.28;0.28;;;26.50;99.90;;;;;;5115328;28;20040;-82
2023/09/07 10:28:32;;;;;;;0.85;0.50;;;26.60;99.90;;;;;;5114849;28;20075;-83
2023/09/07 10:31:04;;;;;;;0.85;0.68;;;26.70;99.90;;;;;;5114956;28;20042;-83
2023/09/07 10:33:31;;;;;;;0.25;0.25;;;26.80;99.90;;;;;;5114813;28;20043;-82
2023/09/07 10:35:57;;;;;;;0.40;0.40;;;26.70;99.90;;;;;;5114843;28;20177;-82
2023/09/07 10:38:24;;;;;;;0.50;0.40;;;26.90;99.90;;;;;;5114515;28;20496;-81
2023/09/07 10:41:00;;;;;;;0.65;0.52;;;26.90;99.90;;;;;;5114693;28;20032;-81
2023/09/07 10:43:33;;;;;;;0.20;0.20;;;27.00;99.90;;;;;;5114368;28;20039;-82
2023/09/07 10:46:00;;;;;;;0.25;0.25;;;27.10;99.90;;;;;;5114560;28;20032;-84
2023/09/07 10:48:29;;;;;;;0.30;0.30;;;27.10;99.90;;;;;;5114577;28;20398;-82
2023/09/07 10:50:55;;;;;;;0.38;0.38;;;27.30;99.90;;;;;;5113250;28;20043;-81
2023/09/07 10:53:33;;;;;;;0.30;0.30;;;27.30;99.90;;;;;;5114555;28;20035;-81
2023/09/07 10:56:03;;;;;;;0.57;0.52;;;27.40;99.90;;;;;;5114425;28;20061;-82
2023/09/07 10:58:40;;;;;;;0.40;0.40;;;27.40;99.90;;;;;;5114638;28;20036;-81
2023/09/07 11:01:06;;;;;;;;;;;27.50;99.90;;;;;;5114457;28;20070;-82
2023/09/07 11:03:31;;;;;;;0.55;0.50;;;27.60;99.90;;;;;;5114276;28;20015;-82
2023/09/07 11:06:05;;;;;;;0.30;0.30;;;27.60;99.90;;;;;;5114722;28;20455;-82
2023/09/07 11:08:30;;;;;;;0.43;0.40;;;27.70;99.90;;;;;;5114252;28;20391;-81
2023/09/07 11:10:56;;;;;;;0.60;0.60;;;27.80;99.90;;;;;;5114239;28;20059;-81
2023/09/07 11:13:26;;;;;;;0.43;0.40;;;27.90;99.90;;;;;;5114359;28;20077;-81
2023/09/07 11:15:56;;;;;;;0.30;0.30;;;27.90;99.90;;;;;;5114246;28;20054;-84
2023/09/07 11:18:22;;;;;;;1.65;0.82;;;27.80;99.90;;;;;;5114902;28;20478;-82
2023/09/07 11:20:49;;;;;;;0.38;0.30;;;27.90;99.90;;;;;;5114614;28;20070;-81
2023/09/07 11:23:15;;;;;;;0.30;0.30;;;27.90;99.90;;;;;;5114430;28;20043;-81
2023/09/07 11:25:41;;;;;;;0.43;0.43;;;28.00;99.90;;;;;;5113372;28;20092;-81
2023/09/07 11:28:08;;;;;;;0.20;0.20;;;28.10;99.90;;;;;;5114024;28;20379;-81
2023/09/07 11:30:34;;;;;;;0.88;0.65;;;28.20;99.90;;;;;;5114029;28;20062;-82
2023/09/07 11:33:05;;;;;;;0.22;0.22;;;28.30;99.90;;;;;;5114831;28;20035;-82
2023/09/07 11:35:31;;;;;;;0.30;0.30;;;28.30;99.90;;;;;;5114108;28;20032;-82
2023/09/07 11:38:03;;;;;;;0.68;0.43;;;28.40;99.90;;;;;;5114588;28;20077;-82
2023/09/07 11:40:30;;;;;;;0.40;0.30;;;28.40;99.90;;;;;;5113996;28;20043;-82
2023/09/07 11:42:55;;;;;;;;;;;28.50;99.90;;;;;;5114370;28;20035;-82
2023/09/07 11:45:21;;;;;;;0.20;0.20;;;28.50;99.90;;;;;;5112732;28;19920;-82
2023/09/07 11:47:47;;;;;;;0.45;0.45;;;28.60;99.90;;;;;;5114110;28;20035;-82
2023/09/07 11:50:13;;;;;;;0.30;0.30;;;28.60;99.90;;;;;;5114031;28;20126;-82
2023/09/07 11:52:38;;;;;;;0.40;0.40;;;28.50;99.90;;;;;;5114126;28;20436;-82
2023/09/07 11:55:04;;;;;;;0.43;0.40;;;28.60;99.90;;;;;;5114032;28;20270;-82
2023/09/07 11:57:30;;;;;;;0.20;0.20;;;28.70;99.90;;;;;;5113818;28;20382;-82
2023/09/07 11:59:56;;;;;;;0.30;0.30;;;28.70;99.90;;;;;;5113871;28;20036;-81
2023/09/07 12:02:22;;;;;;;0.22;0.22;;;28.70;99.90;;;;;;5114241;28;20174;-81
2023/09/07 12:04:48;;;;;;;0.40;0.40;;;28.80;99.90;;;;;;5114504;28;20075;-81
2023/09/07 12:07:14;;;;;;;0.30;0.30;;;28.90;99.90;;;;;;5113714;28;20096;-82
2023/09/07 12:09:40;;;;;;;;;;;29.00;99.90;;;;;;5114219;28;20498;-83
2023/09/07 12:12:07;;;;;;;0.38;0.30;;;29.10;99.90;;;;;;5113924;28;19954;-81
2023/09/07 12:14:32;;;;;;;0.77;0.77;;;29.10;99.90;;;;;;5114962;28;20378;-83
2023/09/07 12:16:58;;;;;;;0.20;0.20;;;29.20;99.90;;;;;;5117605;28;20099;-81
2023/09/07 12:19:24;;;;;;;0.25;0.25;;;29.20;99.90;;;;;;5117478;28;20040;-81
2023/09/07 12:21:51;;;;;;;0.40;0.40;;;29.20;99.90;;;;;;5117423;28;20456;-82
2023/09/07 12:24:17;;;;;;;1.20;0.30;;;29.10;99.90;;;;;;5117034;28;20282;-81
2023/09/07 12:26:42;;;;;;;0.20;0.20;;;29.20;99.90;;;;;;5082549;28;20050;-82
2023/09/07 12:29:08;;;;;;;0.30;0.30;;;29.20;99.90;;;;;;5117190;28;20081;-82
2023/09/07 12:31:34;;;;;;;0.40;0.40;;;29.20;99.90;;;;;;5117302;28;20039;-84
2023/09/07 12:33:59;;;;;;;0.77;0.68;;;29.30;99.90;;;;;;5117181;28;20081;-81
2023/09/07 12:36:29;;;;;;;0.27;0.27;;;29.30;99.90;;;;;;5117541;28;20464;-82
2023/09/07 12:38:57;;;;;;;0.55;0.47;;;29.30;99.90;;;;;;5116435;28;20044;-82
2023/09/07 12:41:23;;;;;;;0.20;0.20;;;29.30;99.90;;;;;;5116588;28;20374;-82
2023/09/07 12:43:48;;;;;;;0.20;0.20;;;29.30;99.90;;;;;;5117061;28;20039;-82
2023/09/07 12:46:14;;;;;;;0.30;0.30;;;29.40;99.90;;;;;;5117029;28;20039;-81